createdAt,value
2022-10-18T00:00:24.495Z,-28
2022-10-18T00:02:26.134Z,-28.2
2022-10-18T00:06:29.048Z,-27.9
2022-10-18T00:08:30.481Z,-27.8
2022-10-18T00:10:32.247Z,-27.8
2022-10-18T00:12:33.173Z,-28
2022-10-18T00:14:34.286Z,-28.1
2022-10-18T00:16:35.306Z,-28.2
2022-10-18T00:18:36.736Z,-27.7
2022-10-18T00:20:38.032Z,-28.2
2022-10-18T00:22:39.227Z,-28
2022-10-18T00:24:40.813Z,-27.9
2022-10-18T00:26:42.083Z,-27.8
2022-10-18T00:28:43.798Z,-28.1
2022-10-18T00:30:45.564Z,-28
2022-10-18T00:32:47.219Z,-27.8
2022-10-18T00:36:49.939Z,-28.3
2022-10-18T00:38:51.828Z,-28.1
2022-10-18T00:40:52.964Z,-28
2022-10-18T00:42:54.659Z,-28.1
2022-10-18T00:44:55.611Z,-28
2022-10-18T00:50:59.983Z,-28.2
2022-10-18T00:53:01.604Z,-27.9
2022-10-18T00:55:03.154Z,-27.8
2022-10-18T00:57:04.419Z,-27.8
2022-10-18T00:59:05.973Z,-28
2022-10-18T01:01:06.889Z,-28.1
2022-10-18T01:05:09.773Z,-28
2022-10-18T01:07:11.477Z,-28
2022-10-18T01:09:12.703Z,-28
2022-10-18T01:11:14.113Z,-28
2022-10-18T01:13:15.366Z,-27.9
2022-10-18T01:15:16.913Z,-27.9
2022-10-18T01:17:18.781Z,-28
2022-10-18T01:20:04.342Z,-28
2022-10-18T01:22:05.418Z,-27.9
2022-10-18T01:24:06.310Z,-28.3
2022-10-18T01:26:08.195Z,-27.9
2022-10-18T01:28:09.854Z,-28.2
2022-10-18T01:30:11.286Z,-27.9
2022-10-18T01:32:13.067Z,-28.2
2022-10-18T01:34:14.371Z,-28.3
2022-10-18T01:36:16.216Z,-27.8
2022-10-18T01:38:17.372Z,-28.3
2022-10-18T01:44:21.448Z,-28
2022-10-18T01:46:23.269Z,-27.8
2022-10-18T01:48:24.611Z,-27.9
2022-10-18T01:50:25.969Z,-27.9
2022-10-18T01:52:27.386Z,-28
2022-10-18T01:54:28.754Z,-28.2
2022-10-18T01:56:30.016Z,-28.2
2022-10-18T01:58:30.904Z,-27.7
2022-10-18T02:00:31.913Z,-27.8
2022-10-18T02:02:33.780Z,-28.2
2022-10-18T02:04:35.047Z,-28.2
2022-10-18T02:10:39.352Z,-27.9
2022-10-18T02:14:41.518Z,-28.2
2022-10-18T02:16:43.360Z,-27.8
2022-10-18T02:18:45.020Z,-28.2
2022-10-18T02:20:46.376Z,-27.9
2022-10-18T02:24:49.712Z,-28.2
2022-10-18T02:26:51.043Z,-27.9
2022-10-18T02:28:52.544Z,-28.2
2022-10-18T02:30:53.570Z,-28.2
2022-10-18T02:32:54.788Z,-28
2022-10-18T02:34:56.544Z,-27.9
2022-10-18T02:37:06.764Z,-28.1
2022-10-18T02:38:59.247Z,-27.9
2022-10-18T02:41:00.563Z,-28.3
2022-10-18T02:43:02.030Z,-28
2022-10-18T02:45:03.418Z,-28
2022-10-18T02:47:04.908Z,-28.1
2022-10-18T02:49:06.328Z,-28.3
2022-10-18T02:51:07.622Z,-28
2022-10-18T02:53:09.031Z,-28
2022-10-18T02:57:11.141Z,-27.9
2022-10-18T02:59:12.336Z,-28.2
2022-10-18T03:01:14.033Z,-27.9
2022-10-18T03:03:15.852Z,-28.1
2022-10-18T03:05:16.759Z,-28.4
2022-10-18T03:09:19.589Z,-28.3
2022-10-18T03:11:21.248Z,-28.1
2022-10-18T03:13:22.527Z,-28.1
2022-10-18T03:15:24.123Z,-27.9
2022-10-18T03:17:25.412Z,-28.3
2022-10-18T03:19:26.913Z,-27.9
2022-10-18T03:21:28.040Z,-27.7
2022-10-18T03:23:29.333Z,-27.8
2022-10-18T03:25:30.871Z,-28
2022-10-18T03:27:32.393Z,-28.2
2022-10-18T03:29:33.760Z,-28
2022-10-18T03:31:35.046Z,-28
2022-10-18T03:33:36.135Z,-27.9
2022-10-18T03:35:37.358Z,-28.4
2022-10-18T03:37:38.980Z,-28.1
2022-10-18T03:39:40.843Z,-28
2022-10-18T03:41:41.917Z,-28
2022-10-18T03:45:44.637Z,-28
2022-10-18T03:47:46.011Z,-28
2022-10-18T03:49:47.024Z,-27.9
2022-10-18T03:51:48.429Z,-27.9
2022-10-18T03:55:51.060Z,-27.9
2022-10-18T03:57:51.959Z,-28
2022-10-18T03:59:53.415Z,-28
2022-10-18T04:01:54.580Z,-28
2022-10-18T04:03:55.793Z,-28.2
2022-10-18T04:05:57.159Z,-28.1
2022-10-18T04:07:58.078Z,-28
2022-10-18T04:09:59.772Z,-28.2
2022-10-18T04:12:01.378Z,-28.2
2022-10-18T04:14:02.991Z,-28.2
2022-10-18T04:16:04.459Z,-28.2
2022-10-18T04:18:05.527Z,-28.2
2022-10-18T04:20:07.205Z,-28.2
2022-10-18T04:22:08.693Z,-27.8
2022-10-18T04:24:09.671Z,-27.7
2022-10-18T04:26:11.098Z,-28
2022-10-18T04:28:12.558Z,-27.9
2022-10-18T04:30:13.904Z,-27.8
2022-10-18T04:34:17.159Z,-27.9
2022-10-18T04:36:18.443Z,-28
2022-10-18T04:38:19.559Z,-27.9
2022-10-18T04:40:21.000Z,-27.9
2022-10-18T04:42:22.178Z,-28.1
2022-10-18T04:44:23.293Z,-27.9
2022-10-18T04:46:24.967Z,-28.2
2022-10-18T04:48:26.227Z,-28.2
2022-10-18T04:50:27.718Z,-28.2
2022-10-18T04:52:28.846Z,-27.9
2022-10-18T04:54:30.078Z,-28.3
2022-10-18T04:56:31.493Z,-28.3
2022-10-18T04:58:32.599Z,-27.8
2022-10-18T05:00:37.729Z,-28
2022-10-18T05:04:37.050Z,-27.9
2022-10-18T05:06:38.202Z,-27.8
2022-10-18T05:08:39.889Z,-28.2
2022-10-18T05:10:41.185Z,-28
2022-10-18T05:12:42.964Z,-28.2
2022-10-18T05:14:43.846Z,-28.4
2022-10-18T05:16:45.282Z,-28
2022-10-18T05:18:46.571Z,-27.9
2022-10-18T05:20:48.150Z,-28.3
2022-10-18T05:22:49.123Z,-28.2
2022-10-18T05:26:51.880Z,-28.2
2022-10-18T05:28:53.498Z,-28.1
2022-10-18T05:30:55.008Z,-28
2022-10-18T05:32:56.791Z,-27.9
2022-10-18T05:34:57.785Z,-28.2
2022-10-18T05:36:59.570Z,-28
2022-10-18T05:39:02.437Z,-28.2
2022-10-18T05:41:02.189Z,-28
2022-10-18T05:43:03.443Z,-28
2022-10-18T05:49:07.990Z,-28.4
2022-10-18T05:51:09.849Z,-28.3
2022-10-18T05:53:18.447Z,-28.4
2022-10-18T05:55:12.934Z,-28.4
2022-10-18T05:57:14.173Z,-28.4
2022-10-18T05:59:15.447Z,-28.3
2022-10-18T06:01:17.148Z,-28.3
2022-10-18T06:03:18.773Z,-28.3
2022-10-18T06:05:19.768Z,-28.2
2022-10-18T06:07:20.925Z,-28.3
2022-10-18T06:09:22.067Z,-28.4
2022-10-18T06:15:25.820Z,-28.4
2022-10-18T06:17:28.932Z,-28.2
2022-10-18T06:19:28.653Z,-28.3
2022-10-18T06:21:29.900Z,-28.3
2022-10-18T06:23:31.065Z,-28.1
2022-10-18T06:25:32.301Z,-28.3
2022-10-18T06:27:34.579Z,-28.3
2022-10-18T06:29:35.826Z,-28.4
2022-10-18T06:31:37.642Z,-28.3
2022-10-18T06:33:38.538Z,-28.2
2022-10-18T06:35:40.022Z,-28.3
2022-10-18T06:39:42.659Z,1.8
2022-10-18T06:41:44.372Z,1.5
2022-10-18T06:43:45.644Z,3.1
2022-10-18T06:45:47.043Z,-28.3
2022-10-18T06:47:48.289Z,-28.3
2022-10-18T06:49:49.786Z,-28.4
2022-10-18T06:51:51.546Z,-28.6
2022-10-18T06:54:06.052Z,-28.5
2022-10-18T06:55:53.914Z,-28
2022-10-18T06:57:54.874Z,-28.3
2022-10-18T07:01:57.814Z,-27
2022-10-18T07:03:59.515Z,-19.4
2022-10-18T07:06:00.963Z,-9.8
2022-10-18T07:08:02.477Z,13.6
2022-10-18T07:10:03.443Z,2.09
2022-10-18T07:12:05.213Z,80.3
2022-10-18T07:14:07.270Z,78.9
2022-10-18T07:16:09.809Z,78.4
2022-10-18T07:18:10.149Z,4.3
2022-10-18T07:20:11.112Z,8.89
2022-10-18T07:22:12.678Z,16.29
2022-10-18T07:24:14.107Z,27.1
2022-10-18T07:26:15.236Z,4.6
2022-10-18T07:28:16.318Z,-0.1
2022-10-18T07:30:17.493Z,1.3
2022-10-18T07:32:18.456Z,2.7
2022-10-18T07:36:21.389Z,8.3
2022-10-18T07:38:22.860Z,4.1
2022-10-18T07:40:23.820Z,43.2
2022-10-18T07:44:27.169Z,9.1
2022-10-18T07:46:28.385Z,75.9
2022-10-18T07:48:29.867Z,75.19
2022-10-18T07:50:31.013Z,74.5
2022-10-18T07:52:32.702Z,74
2022-10-18T07:58:37.104Z,-2.9
2022-10-18T08:00:38.226Z,-4.19
2022-10-18T08:02:40.026Z,-2.3
2022-10-18T08:04:41.308Z,-1
2022-10-18T08:07:26.866Z,-3.4
2022-10-18T08:09:28.475Z,-4.5
2022-10-18T08:11:30.171Z,-4.8
2022-10-18T08:13:31.954Z,4.1
2022-10-18T08:17:35.056Z,11
2022-10-18T08:19:36.191Z,12.9
2022-10-18T08:21:37.367Z,15.7
2022-10-18T08:23:39.065Z,71.5
2022-10-18T08:25:40.368Z,70.5
2022-10-18T08:27:41.280Z,69.5
2022-10-18T08:29:43.113Z,69
2022-10-18T08:31:44.055Z,68.3
2022-10-18T08:33:44.955Z,66.19
2022-10-18T08:39:48.697Z,-0.9
2022-10-18T08:41:50.115Z,-17
2022-10-18T08:43:51.149Z,-21.3
2022-10-18T08:47:53.442Z,-3.7
2022-10-18T08:49:54.424Z,9.6
2022-10-18T08:51:55.403Z,26.9
2022-10-18T08:53:56.258Z,21.1
2022-10-18T08:55:57.125Z,23.9
2022-10-18T08:57:58.721Z,24.8
2022-10-18T09:00:00.345Z,39.8
2022-10-18T09:02:01.892Z,54.1
2022-10-18T09:06:04.772Z,50.3
2022-10-18T09:10:07.174Z,47.4
2022-10-18T09:12:08.598Z,45.8
2022-10-18T09:14:10.217Z,44.6
2022-10-18T09:16:11.400Z,41.8
2022-10-18T09:20:13.411Z,41.8
2022-10-18T09:22:15.224Z,45.6
2022-10-18T09:24:16.440Z,-10.1
2022-10-18T09:26:17.670Z,-12.6
2022-10-18T09:28:19.414Z,-10.3
2022-10-18T09:30:20.238Z,-5.3
2022-10-18T09:32:21.790Z,-15.1
2022-10-18T09:34:22.772Z,-14.3
2022-10-18T09:36:23.755Z,-10.9
2022-10-18T09:40:26.004Z,-5.8
2022-10-18T09:42:27.549Z,-11.8
2022-10-18T09:44:28.944Z,-12.7
2022-10-18T09:46:30.128Z,-6.4
2022-10-18T09:48:31.284Z,37.2
2022-10-18T09:50:32.454Z,34
2022-10-18T09:52:34.319Z,34.2
2022-10-18T09:54:35.251Z,33.9
2022-10-18T09:56:39.250Z,32.5
2022-10-18T09:58:38.086Z,31.6
2022-10-18T10:00:39.001Z,-14.3
2022-10-18T10:02:39.976Z,-18.7
2022-10-18T10:04:42.250Z,30
2022-10-18T10:06:43.962Z,25
2022-10-18T10:08:45.757Z,21.6
2022-10-18T10:10:47.550Z,21.6
2022-10-18T10:12:49.057Z,20
2022-10-18T10:14:50.760Z,17.9
2022-10-18T10:16:52.365Z,18.1
2022-10-18T10:20:55.589Z,14.3
2022-10-18T10:24:58.608Z,13
2022-10-18T10:26:59.753Z,13
2022-10-18T10:29:01.463Z,9.8
2022-10-18T10:31:02.520Z,10.3
2022-10-18T10:33:03.623Z,10.8
2022-10-18T10:35:05.250Z,10.1
2022-10-18T10:37:06.574Z,9
2022-10-18T10:41:08.945Z,7.6
2022-10-18T10:43:13.136Z,7.5
2022-10-18T10:45:11.438Z,-28
2022-10-18T10:47:13.163Z,-28.2
2022-10-18T10:49:38.359Z,-27.9
2022-10-18T10:51:16.433Z,-28.2
2022-10-18T10:53:17.205Z,-28.2
2022-10-18T10:55:33.917Z,-27.8
2022-10-18T10:57:19.819Z,-28.2
2022-10-18T10:59:21.168Z,-27.9
2022-10-18T11:01:22.403Z,-27.8
2022-10-18T11:03:28.867Z,-27.9
2022-10-18T11:05:25.076Z,-28
2022-10-18T11:07:26.364Z,-27.8
2022-10-18T11:11:29.558Z,-27.9
2022-10-18T11:13:30.675Z,-27.8
2022-10-18T11:15:31.566Z,-27.8
2022-10-18T11:17:32.585Z,-27.9
2022-10-18T11:19:34.407Z,-27.9
2022-10-18T11:21:35.925Z,-27.9
2022-10-18T11:23:36.868Z,-27.8
2022-10-18T11:25:38.109Z,-27.9
2022-10-18T11:27:39.762Z,-27.7
2022-10-18T11:29:41.456Z,-27.9
2022-10-18T11:34:07.439Z,-28
2022-10-18T11:35:45.877Z,-28.1
2022-10-18T11:37:47.510Z,-27.8
2022-10-18T11:39:48.342Z,-27.8
2022-10-18T11:44:02.064Z,-27.7
2022-10-18T11:45:52.983Z,-27.9
2022-10-18T11:47:55.136Z,-27.9
2022-10-18T11:49:55.387Z,-28
2022-10-18T11:52:07.627Z,-28
2022-10-18T11:53:57.819Z,-28
2022-10-18T11:55:58.955Z,-27.9
2022-10-18T11:57:59.904Z,-27.8
2022-10-18T12:00:01.416Z,-27.9
2022-10-18T12:02:02.911Z,-28.2
2022-10-18T12:04:04.267Z,-28.1
2022-10-18T12:06:05.492Z,-27.7
2022-10-18T12:08:07.290Z,-28
2022-10-18T12:12:10.532Z,-27.9
2022-10-18T12:14:12.147Z,-28.4
2022-10-18T12:16:13.908Z,-28.2
2022-10-18T12:18:15.095Z,-27.8
2022-10-18T12:20:16.162Z,-27.8
2022-10-18T12:22:17.939Z,-28.2
2022-10-18T12:28:21.299Z,-27.9
2022-10-18T12:30:22.461Z,-27.8
2022-10-18T12:32:24.032Z,-28.2
2022-10-18T12:34:25.375Z,-27.9
2022-10-18T12:36:26.546Z,-27.9
2022-10-18T12:38:27.705Z,-27.9
2022-10-18T12:40:28.762Z,-28.3
2022-10-18T12:42:30.397Z,-27.9
2022-10-18T12:44:31.934Z,-27.9
2022-10-18T12:48:35.197Z,-27.8
2022-10-18T12:50:36.453Z,-28.2
2022-10-18T12:52:37.446Z,-28
2022-10-18T12:54:38.888Z,-27.9
2022-10-18T12:56:39.673Z,-27.8
2022-10-18T12:58:40.704Z,-28
2022-10-18T13:00:41.554Z,-28
2022-10-18T13:04:43.807Z,-28.4
2022-10-18T13:06:44.795Z,-27.7
2022-10-18T13:08:45.892Z,-28.1
2022-10-18T13:10:47.502Z,-28.1
2022-10-18T13:14:58.996Z,-28.1
2022-10-18T13:16:51.507Z,-27.7
2022-10-18T13:18:52.999Z,-28.2
2022-10-18T13:20:54.158Z,-27.9
2022-10-18T13:24:56.788Z,-28.2
2022-10-18T13:27:03.939Z,-27.9
2022-10-18T13:28:58.939Z,-27.7
2022-10-18T13:30:59.749Z,-28.5
2022-10-18T13:35:02.519Z,-28.2
2022-10-18T13:37:03.695Z,-28.4
2022-10-18T13:39:04.660Z,-28.2
2022-10-18T13:41:05.732Z,-27.9
2022-10-18T13:43:06.619Z,-27.7
2022-10-18T13:45:07.993Z,-28.2
2022-10-18T13:47:09.719Z,-28.3
2022-10-18T13:49:10.802Z,-27.9
2022-10-18T13:51:12.030Z,-28
2022-10-18T13:53:13.126Z,-27.9
2022-10-18T13:57:15.276Z,-27.9
2022-10-18T13:59:16.665Z,-28.1
2022-10-18T14:01:17.918Z,-28.2
2022-10-18T14:03:37.797Z,-28.2
2022-10-18T14:09:32.692Z,-28.3
2022-10-18T14:11:23.578Z,-28
2022-10-18T14:13:25.110Z,-27.9
2022-10-18T14:15:26.657Z,-28.3
2022-10-18T14:17:27.866Z,-28.2
2022-10-18T14:19:29.628Z,-28
2022-10-18T14:21:31.630Z,-28
2022-10-18T14:23:32.935Z,-28.2
2022-10-18T14:25:34.203Z,-27.8
2022-10-18T14:27:35.443Z,-28.2
2022-10-18T14:29:37.162Z,-27.9
2022-10-18T14:31:38.663Z,-28.2
2022-10-18T14:33:39.919Z,-28.2
2022-10-18T14:35:41.564Z,-28
2022-10-18T14:37:43.192Z,-27.9
2022-10-18T14:39:44.341Z,-28.1
2022-10-18T14:41:46.049Z,-28.2
2022-10-18T14:45:48.308Z,-28.1
2022-10-18T14:47:49.868Z,-28
2022-10-18T14:49:51.126Z,-28
2022-10-18T14:50:34.880Z,-28
2022-10-18T14:52:36.021Z,-28.3
2022-10-18T14:54:37.117Z,-28.4
2022-10-18T14:56:38.145Z,-28.1
2022-10-18T14:58:39.130Z,-28.1
2022-10-18T15:00:41.102Z,-28.1
2022-10-18T15:02:42.374Z,-28
2022-10-18T15:06:44.349Z,-27.8
2022-10-18T15:08:45.732Z,-28.3
2022-10-18T15:10:47.184Z,-28.2
2022-10-18T15:13:08.525Z,-27.9
2022-10-18T15:14:50.271Z,-28.2
2022-10-18T15:16:51.956Z,-28.1
2022-10-18T15:18:52.807Z,-27.9
2022-10-18T15:20:54.645Z,-28.2
2022-10-18T15:22:56.224Z,-28.1
2022-10-18T15:24:57.091Z,-27.9
2022-10-18T15:26:58.318Z,-28
2022-10-18T15:29:01.419Z,-27.8
2022-10-18T15:31:01.631Z,-28.2
2022-10-18T15:33:03.276Z,-27.9
2022-10-18T15:35:04.188Z,-27.9
2022-10-18T15:41:08.021Z,-27.9
2022-10-18T15:43:09.624Z,-27.9
2022-10-18T15:45:11.352Z,-28.2
2022-10-18T15:47:12.300Z,-27.7
2022-10-18T15:49:13.421Z,-27.7
2022-10-18T15:51:14.349Z,-28.1
2022-10-18T15:53:16.175Z,-28
2022-10-18T15:55:17.989Z,-28
2022-10-18T15:57:19.558Z,-28.4
2022-10-18T15:59:20.586Z,-28
2022-10-18T16:01:22.268Z,-28.2
2022-10-18T16:03:23.357Z,-28
2022-10-18T16:05:24.280Z,-28.2
2022-10-18T16:07:25.623Z,-28.1
2022-10-18T16:09:26.622Z,-27.9
2022-10-18T16:11:28.031Z,-27.9
2022-10-18T16:13:29.460Z,-27.8
2022-10-18T16:15:31.305Z,-28
2022-10-18T16:17:32.786Z,-27.8
2022-10-18T16:19:34.319Z,-28
2022-10-18T16:21:35.510Z,-28.2
2022-10-18T16:23:36.810Z,-28.1
2022-10-18T16:25:38.572Z,-27.7
2022-10-18T16:27:40.319Z,-27.9
2022-10-18T16:29:42.179Z,-28.4
2022-10-18T16:31:43.517Z,-28.4
2022-10-18T16:33:44.989Z,-28.2
2022-10-18T16:37:47.649Z,-28.4
2022-10-18T16:39:49.123Z,-28
2022-10-18T16:41:49.971Z,-27.9
2022-10-18T16:43:51.538Z,-28
2022-10-18T16:45:52.569Z,-28.2
2022-10-18T16:47:54.221Z,-28.3
2022-10-18T16:49:55.841Z,-27.7
2022-10-18T16:51:56.794Z,-28.2
2022-10-18T16:53:57.979Z,-28
2022-10-18T16:58:01.253Z,-28.1
2022-10-18T17:00:02.908Z,-28
2022-10-18T17:02:03.841Z,-28.2
2022-10-18T17:04:04.892Z,-27.9
2022-10-18T17:06:06.013Z,-28
2022-10-18T17:08:07.117Z,-28.3
2022-10-18T17:10:08.079Z,-28.2
2022-10-18T17:12:09.221Z,-28.2
2022-10-18T17:14:10.203Z,-28
2022-10-18T17:16:11.563Z,-27.9
2022-10-18T17:18:13.048Z,-27.9
2022-10-18T17:22:15.719Z,-28
2022-10-18T17:24:17.352Z,-27.9
2022-10-18T17:26:28.176Z,-27.9
2022-10-18T17:28:19.604Z,-28.2
2022-10-18T17:30:20.730Z,-28.2
2022-10-18T17:32:21.606Z,-27.9
2022-10-18T17:36:24.342Z,-27.7
2022-10-18T17:38:25.922Z,-28.1
2022-10-18T17:40:26.838Z,-28
2022-10-18T17:42:28.097Z,-28
2022-10-18T17:44:29.249Z,-28
2022-10-18T17:46:30.584Z,-28
2022-10-18T17:48:32.257Z,-28
2022-10-18T17:52:34.820Z,-27.9
2022-10-18T17:56:37.163Z,-28.1
2022-10-18T17:58:38.170Z,-28.3
2022-10-18T18:02:41.949Z,-28
2022-10-18T18:04:42.779Z,-27.9
2022-10-18T18:06:44.345Z,-28.1
2022-10-18T18:08:45.778Z,-28.2
2022-10-18T18:10:46.746Z,-27.9
2022-10-18T18:12:47.720Z,-28.2
2022-10-18T18:14:48.633Z,-28
2022-10-18T18:16:50.210Z,-28
2022-10-18T18:18:51.427Z,-27.9
2022-10-18T18:24:55.884Z,-27.9
2022-10-18T18:26:57.358Z,-27.7
2022-10-18T18:28:58.541Z,-28
2022-10-18T18:31:00.044Z,-27.9
2022-10-18T18:33:01.174Z,-28.1
2022-10-18T18:35:02.835Z,-27.6
2022-10-18T18:39:05.536Z,-28
2022-10-18T18:41:06.734Z,-28
2022-10-18T18:47:13.219Z,-28.3
2022-10-18T18:49:12.046Z,-27.9
2022-10-18T18:51:13.692Z,-28
2022-10-18T18:53:15.179Z,-27.8
2022-10-18T18:55:17.000Z,-27.8
2022-10-18T18:57:18.493Z,-28
2022-10-18T18:59:20.280Z,-28
2022-10-18T19:01:22.063Z,-28.2
2022-10-18T19:05:24.861Z,-27.8
2022-10-18T19:07:26.349Z,-28.1
2022-10-18T19:09:28.150Z,-28.2
2022-10-18T19:11:29.619Z,-28
2022-10-18T19:15:32.074Z,-27.9
2022-10-18T19:17:33.828Z,-28.2
2022-10-18T19:19:34.803Z,-28.3
2022-10-18T19:21:36.107Z,-28.2
2022-10-18T19:23:37.466Z,-28
2022-10-18T19:25:38.672Z,-27.9
2022-10-18T19:27:39.739Z,-28.1
2022-10-18T19:29:41.068Z,-28
2022-10-18T19:33:48.222Z,-28.3
2022-10-18T19:37:46.293Z,-28.2
2022-10-18T19:39:48.127Z,-28.5
2022-10-18T19:43:50.875Z,-28.1
2022-10-18T19:49:54.632Z,-28.4
2022-10-18T19:51:55.577Z,-28.2
2022-10-18T19:53:57.438Z,-28.2
2022-10-18T19:55:58.684Z,-28.3
2022-10-18T19:57:59.709Z,-28.3
2022-10-18T20:00:01.020Z,-28.3
2022-10-18T20:04:03.829Z,-28.3
2022-10-18T20:06:05.512Z,-28.3
2022-10-18T20:08:06.485Z,-28.3
2022-10-18T20:10:07.645Z,-28.6
2022-10-18T20:12:08.707Z,-28.3
2022-10-18T20:14:09.946Z,-28.4
2022-10-18T20:16:11.313Z,-28.4
2022-10-18T20:18:12.609Z,-28.1
2022-10-18T20:20:22.328Z,-28.3
2022-10-18T20:22:16.032Z,-28.4
2022-10-18T20:26:20.397Z,-28.5
2022-10-18T20:28:20.357Z,-28.4
2022-10-18T20:30:21.663Z,-28.6
2022-10-18T20:32:23.233Z,-28.4
2022-10-18T20:34:24.176Z,-28.2
2022-10-18T20:36:25.071Z,-28.5
2022-10-18T20:38:26.286Z,-28.4
2022-10-18T20:40:27.532Z,-28.4
2022-10-18T20:42:28.997Z,-28.3
2022-10-18T20:44:30.324Z,-28.4
2022-10-18T20:46:31.500Z,-28.5
2022-10-18T20:48:32.530Z,-28.6
2022-10-18T20:50:34.069Z,-28.4
2022-10-18T20:52:35.756Z,-28.8
2022-10-18T20:54:37.348Z,-28.6
2022-10-18T20:56:38.907Z,-28.8
2022-10-18T20:58:40.243Z,-28.9
2022-10-18T21:02:42.266Z,-29
2022-10-18T21:04:43.321Z,-28.8
2022-10-18T21:06:44.552Z,-28.9
2022-10-18T21:08:45.870Z,-29
2022-10-18T21:14:50.257Z,-29
2022-10-18T21:16:51.815Z,-29
2022-10-18T21:18:53.317Z,-28.9
2022-10-18T21:20:54.872Z,-29
2022-10-18T21:22:56.271Z,-29
2022-10-18T21:24:57.618Z,-28.9
2022-10-18T21:29:00.543Z,-28.8
2022-10-18T21:31:02.088Z,-28.9
2022-10-18T21:33:03.573Z,-28.8
2022-10-18T21:35:05.079Z,-29
2022-10-18T21:36:05.023Z,-29
2022-10-18T21:38:06.569Z,-28.7
2022-10-18T21:40:07.893Z,-29.1
2022-10-18T21:42:09.676Z,-28.9
2022-10-18T21:44:11.265Z,-29.1
2022-10-18T21:46:12.570Z,-28.9
2022-10-18T21:52:16.586Z,-29.1
2022-10-18T21:54:18.295Z,-29.1
2022-10-18T21:56:19.412Z,-28.9
2022-10-18T21:58:20.366Z,-29.3
2022-10-18T22:00:21.277Z,-29.1
2022-10-18T22:02:22.791Z,-29.3
2022-10-18T22:04:24.320Z,-29.1
2022-10-18T22:06:25.532Z,-28.9
2022-10-18T22:08:26.391Z,-29.1
2022-10-18T22:10:28.215Z,-29.1
2022-10-18T22:12:30.067Z,-29.1
2022-10-18T22:14:31.788Z,-28.8
2022-10-18T22:16:33.194Z,-29
2022-10-18T22:18:35.059Z,-29.4
2022-10-18T22:20:36.592Z,-29.2
2022-10-18T22:22:38.385Z,-29.2
2022-10-18T22:24:39.698Z,-29.2
2022-10-18T22:26:41.500Z,-29.5
2022-10-18T22:28:42.857Z,-29.3
2022-10-18T22:30:44.686Z,-29.3
2022-10-18T22:32:45.746Z,-29.2
2022-10-18T22:34:47.217Z,-29.3
2022-10-18T22:36:48.830Z,-29.5
2022-10-18T22:38:50.498Z,-29.3
2022-10-18T22:40:52.219Z,-29.4
2022-10-18T22:42:53.667Z,-29.1
2022-10-18T22:44:54.599Z,-29.2
2022-10-18T22:50:58.335Z,-29.8
2022-10-18T22:52:59.815Z,-29.8
2022-10-18T22:55:00.743Z,-28.1
2022-10-18T22:57:01.921Z,-28.3
2022-10-18T22:59:03.664Z,-28.1
2022-10-18T23:01:05.461Z,-29.8
2022-10-18T23:05:07.967Z,-27.9
2022-10-18T23:07:09.101Z,-28.3
2022-10-18T23:09:10.030Z,-28.4
2022-10-18T23:11:11.352Z,-28.1
2022-10-18T23:13:12.360Z,-28.4
2022-10-18T23:15:13.287Z,-28.2
2022-10-18T23:17:15.092Z,-28
2022-10-18T23:19:16.496Z,-28.2
2022-10-18T23:21:18.257Z,-28
2022-10-18T23:23:19.922Z,-28.4
2022-10-18T23:25:21.647Z,-27.8
2022-10-18T23:27:23.310Z,-28
2022-10-18T23:31:25.710Z,-28
2022-10-18T23:33:26.901Z,-28.2
2022-10-18T23:35:28.313Z,-28.2
2022-10-18T23:37:30.061Z,-28.1
2022-10-18T23:39:31.085Z,-28
2022-10-18T23:41:33.059Z,-28.3
2022-10-18T23:43:34.643Z,-28.1
2022-10-18T23:45:36.338Z,-28.2
2022-10-18T23:47:38.065Z,-27.9
2022-10-18T23:49:39.370Z,-27.8
2022-10-18T23:51:40.370Z,-28
2022-10-18T23:53:41.485Z,-27.9
2022-10-18T23:59:46.068Z,-28.2
